createdAt,value
2018-05-25T00:01:34.068Z,20.60
2018-05-25T00:04:01.700Z,20.50
2018-05-25T00:06:29.365Z,20.60
2018-05-25T00:08:56.999Z,20.60
2018-05-25T00:11:24.697Z,20.60
2018-05-25T00:13:52.336Z,20.60
2018-05-25T00:16:20.791Z,20.60
2018-05-25T00:18:48.432Z,20.60
2018-05-25T00:21:16.112Z,20.60
2018-05-25T00:23:43.842Z,20.60
2018-05-25T00:26:12.329Z,20.60
2018-05-25T00:28:40.753Z,20.50
2018-05-25T00:31:08.416Z,20.50
2018-05-25T00:33:36.828Z,20.50
2018-05-25T00:36:04.528Z,20.50
2018-05-25T00:38:32.193Z,20.50
2018-05-25T00:40:59.825Z,20.50
2018-05-25T00:43:28.266Z,20.50
2018-05-25T00:45:55.908Z,20.50
2018-05-25T00:48:23.605Z,20.50
2018-05-25T00:50:51.240Z,20.60
2018-05-25T00:53:19.681Z,20.50
2018-05-25T00:55:47.326Z,20.50
2018-05-25T00:58:15.015Z,20.50
2018-05-25T01:00:42.685Z,20.50
2018-05-25T01:03:10.352Z,20.60
2018-05-25T01:05:37.984Z,20.50
2018-05-25T01:08:05.672Z,20.60
2018-05-25T01:10:34.064Z,20.20
2018-05-25T01:13:02.512Z,20.20
2018-05-25T01:15:30.143Z,20.20
2018-05-25T01:17:57.813Z,20.30
2018-05-25T01:20:26.214Z,20.50
2018-05-25T01:22:53.893Z,20.50
2018-05-25T01:25:21.529Z,20.40
2018-05-25T01:27:49.213Z,20.50
2018-05-25T01:30:17.700Z,20.50
2018-05-25T01:32:46.113Z,20.50
2018-05-25T01:35:13.791Z,20.50
2018-05-25T01:37:41.429Z,20.00
2018-05-25T01:40:09.897Z,19.80
2018-05-25T01:42:37.537Z,19.80
2018-05-25T01:45:05.221Z,19.70
2018-05-25T01:47:32.856Z,19.70
2018-05-25T01:50:01.284Z,19.70
2018-05-25T01:52:28.924Z,19.70
2018-05-25T01:54:57.352Z,19.60
2018-05-25T01:57:24.993Z,19.60
2018-05-25T01:59:53.466Z,18.90
2018-05-25T02:02:21.108Z,18.90
2018-05-25T02:04:48.772Z,18.90
2018-05-25T02:07:16.406Z,19.10
2018-05-25T02:09:44.865Z,19.50
2018-05-25T02:12:12.514Z,19.50
2018-05-25T02:14:40.187Z,19.60
2018-05-25T02:17:07.808Z,19.50
2018-05-25T02:19:36.223Z,19.60
2018-05-25T02:22:03.937Z,19.60
2018-05-25T02:24:31.564Z,19.70
2018-05-25T02:26:59.242Z,19.70
2018-05-25T02:29:26.888Z,19.80
2018-05-25T02:31:54.552Z,20.00
2018-05-25T02:34:22.185Z,20.10
2018-05-25T02:36:49.881Z,20.10
2018-05-25T02:39:17.529Z,20.10
2018-05-25T02:41:45.337Z,20.20
2018-05-25T02:44:12.995Z,20.10
2018-05-25T02:46:40.672Z,20.10
2018-05-25T02:49:08.331Z,19.90
2018-05-25T02:51:36.001Z,19.90
2018-05-25T02:54:03.632Z,20.00
2018-05-25T02:56:32.077Z,20.00
2018-05-25T02:58:59.720Z,20.00
2018-05-25T03:01:27.379Z,19.90
2018-05-25T03:03:55.808Z,19.90
2018-05-25T03:06:23.445Z,19.90
2018-05-25T03:08:51.881Z,19.80
2018-05-25T03:11:19.512Z,19.80
2018-05-25T03:13:47.210Z,19.90
2018-05-25T03:16:14.876Z,19.80
2018-05-25T03:18:42.584Z,19.60
2018-05-25T03:21:10.257Z,19.50
2018-05-25T03:23:37.924Z,19.60
2018-05-25T03:26:05.592Z,19.60
2018-05-25T03:28:33.296Z,19.60
2018-05-25T03:31:00.949Z,19.70
2018-05-25T03:33:28.617Z,19.80
2018-05-25T03:35:56.256Z,19.70
2018-05-25T03:38:23.928Z,19.70
2018-05-25T03:40:52.329Z,19.70
2018-05-25T03:43:19.996Z,19.70
2018-05-25T03:45:47.651Z,19.70
2018-05-25T03:48:16.130Z,19.60
2018-05-25T03:50:43.788Z,19.60
2018-05-25T03:53:11.456Z,19.60
2018-05-25T03:55:39.103Z,19.40
2018-05-25T03:58:06.773Z,19.50
2018-05-25T04:00:46.137Z,19.60
2018-05-25T04:03:13.844Z,19.50
2018-05-25T04:05:41.476Z,19.50
2018-05-25T04:08:09.133Z,19.50
2018-05-25T04:10:36.801Z,19.60
2018-05-25T04:13:04.433Z,19.60
2018-05-25T04:15:32.108Z,19.60
2018-05-25T04:17:59.765Z,19.60
2018-05-25T04:20:27.444Z,19.70
2018-05-25T04:22:55.072Z,19.60
2018-05-25T04:25:22.742Z,19.70
2018-05-25T04:27:50.429Z,19.70
2018-05-25T04:30:18.164Z,19.70
2018-05-25T04:32:46.569Z,19.90
2018-05-25T04:35:15.052Z,19.90
2018-05-25T04:37:42.705Z,19.90
2018-05-25T04:40:10.381Z,20.30
2018-05-25T04:42:38.019Z,20.70
2018-05-25T04:45:05.700Z,21.20
2018-05-25T04:47:33.352Z,21.50
2018-05-25T04:50:01.780Z,21.80
2018-05-25T04:52:29.453Z,22.40
2018-05-25T04:54:57.137Z,22.40
2018-05-25T04:57:24.760Z,22.10
2018-05-25T04:59:52.432Z,22.50
2018-05-25T05:02:20.096Z,22.80
2018-05-25T05:04:48.508Z,23.50
2018-05-25T05:07:16.229Z,23.50
2018-05-25T05:09:43.888Z,24.10
2018-05-25T05:12:11.568Z,24.50
2018-05-25T05:14:39.214Z,25.00
2018-05-25T05:17:06.881Z,25.40
2018-05-25T05:19:34.511Z,25.60
2018-05-25T05:22:02.261Z,25.40
2018-05-25T05:24:29.896Z,25.10
2018-05-25T05:26:57.573Z,24.10
2018-05-25T05:29:25.224Z,22.30
2018-05-25T05:31:53.661Z,21.40
2018-05-25T05:34:21.321Z,21.40
2018-05-25T05:36:48.984Z,21.30
2018-05-25T05:39:16.620Z,21.50
2018-05-25T05:41:45.202Z,21.90
2018-05-25T05:44:12.981Z,21.80
2018-05-25T05:46:40.685Z,22.80
2018-05-25T05:49:09.076Z,23.90
2018-05-25T05:51:37.509Z,25.30
2018-05-25T05:54:05.163Z,25.30
2018-05-25T05:56:32.848Z,25.50
2018-05-25T05:59:00.487Z,25.50
2018-05-25T06:01:28.177Z,25.30
2018-05-25T06:03:55.833Z,24.70
2018-05-25T06:06:24.268Z,26.00
2018-05-25T06:08:51.908Z,26.00
2018-05-25T06:11:19.576Z,25.90
2018-05-25T06:13:48.013Z,25.90
2018-05-25T06:16:15.752Z,25.90
2018-05-25T06:18:43.429Z,24.50
2018-05-25T06:21:11.052Z,25.90
2018-05-25T06:23:38.744Z,24.80
2018-05-25T06:26:06.411Z,26.00
2018-05-25T06:28:34.125Z,24.90
2018-05-25T06:31:01.773Z,25.40
2018-05-25T06:33:30.212Z,26.10
2018-05-25T06:35:57.841Z,26.10
2018-05-25T06:38:26.286Z,26.10
2018-05-25T06:40:53.933Z,26.00
2018-05-25T06:43:21.628Z,27.00
2018-05-25T06:45:49.256Z,26.80
2018-05-25T06:48:17.704Z,26.00
2018-05-25T06:50:45.403Z,26.00
2018-05-25T06:53:13.953Z,26.40
2018-05-25T06:55:41.596Z,26.40
2018-05-25T06:58:09.264Z,25.90
2018-05-25T07:00:37.659Z,25.60
2018-05-25T07:03:06.109Z,25.00
2018-05-25T07:05:33.732Z,25.00
2018-05-25T07:08:01.364Z,25.10
2018-05-25T07:10:29.824Z,25.50
2018-05-25T07:12:57.493Z,25.50
2018-05-25T07:15:25.153Z,25.60
2018-05-25T07:17:52.780Z,25.50
2018-05-25T07:20:20.440Z,26.60
2018-05-25T07:22:48.097Z,27.10
2018-05-25T07:25:15.820Z,27.20
2018-05-25T07:27:43.491Z,27.10
2018-05-25T07:30:11.942Z,28.10
2018-05-25T07:32:39.581Z,28.10
2018-05-25T07:35:07.253Z,27.00
2018-05-25T07:37:34.893Z,27.30
2018-05-25T07:40:02.606Z,27.20
2018-05-25T07:42:30.237Z,27.70
2018-05-25T07:44:57.906Z,29.20
2018-05-25T07:47:25.552Z,28.30
2018-05-25T07:49:53.216Z,28.10
2018-05-25T07:52:20.847Z,28.00
2018-05-25T07:54:49.272Z,27.10
2018-05-25T07:57:16.917Z,27.00
2018-05-25T07:59:45.336Z,29.60
2018-05-25T08:02:13.880Z,29.60
2018-05-25T08:04:41.504Z,29.60
2018-05-25T08:07:09.168Z,27.90
2018-05-25T08:09:36.816Z,28.90
2018-05-25T08:12:05.250Z,28.20
2018-05-25T08:14:32.904Z,28.10
2018-05-25T08:17:00.613Z,28.40
2018-05-25T08:19:28.242Z,28.70
2018-05-25T08:21:56.722Z,27.80
2018-05-25T08:24:24.343Z,27.80
2018-05-25T08:26:52.021Z,27.30
2018-05-25T08:29:19.658Z,27.50
2018-05-25T08:31:47.810Z,28.80
2018-05-25T08:34:16.265Z,27.40
2018-05-25T08:36:43.953Z,27.40
2018-05-25T08:39:11.576Z,26.40
2018-05-25T08:41:39.252Z,26.50
2018-05-25T08:44:07.652Z,28.00
2018-05-25T08:46:35.312Z,28.00
2018-05-25T08:49:03.717Z,26.20
2018-05-25T08:51:31.607Z,26.20
2018-05-25T08:53:59.065Z,26.50
2018-05-25T08:56:26.752Z,25.90
2018-05-25T08:58:54.385Z,25.70
2018-05-25T09:01:22.795Z,24.60
2018-05-25T09:03:50.460Z,24.60
2018-05-25T09:06:18.853Z,25.60
2018-05-25T09:08:47.301Z,24.90
2018-05-25T09:11:14.968Z,24.90
2018-05-25T09:13:42.655Z,25.50
2018-05-25T09:16:10.292Z,26.90
2018-05-25T09:18:37.952Z,28.60
2018-05-25T09:21:05.592Z,28.20
2018-05-25T09:23:33.265Z,29.20
2018-05-25T09:26:00.901Z,27.80
2018-05-25T09:28:28.571Z,28.50
2018-05-25T09:30:56.256Z,30.00
2018-05-25T09:33:23.921Z,30.10
2018-05-25T09:35:51.553Z,29.80
2018-05-25T09:38:19.977Z,29.20
2018-05-25T09:40:47.624Z,29.20
2018-05-25T09:43:16.121Z,28.30
2018-05-25T09:45:43.772Z,28.30
2018-05-25T09:48:11.457Z,28.60
2018-05-25T09:50:39.152Z,27.80
2018-05-25T09:53:06.868Z,28.80
2018-05-25T09:55:34.496Z,28.50
2018-05-25T09:58:02.200Z,27.40
2018-05-25T10:00:29.837Z,27.00
2018-05-25T10:02:58.278Z,25.40
2018-05-25T10:05:25.972Z,25.40
2018-05-25T10:07:53.608Z,24.50
2018-05-25T10:10:21.278Z,26.80
2018-05-25T10:12:48.928Z,26.90
2018-05-25T10:15:16.620Z,28.00
2018-05-25T10:17:44.285Z,26.90
2018-05-25T10:20:11.954Z,26.80
2018-05-25T10:22:39.597Z,26.20
2018-05-25T10:25:07.278Z,26.70
2018-05-25T10:27:35.683Z,28.40
2018-05-25T10:30:04.209Z,27.70
2018-05-25T10:32:31.936Z,27.60
2018-05-25T10:35:00.412Z,29.70
2018-05-25T10:37:28.053Z,29.70
2018-05-25T10:39:55.724Z,28.50
2018-05-25T10:42:23.368Z,29.20
2018-05-25T10:44:51.820Z,27.10
2018-05-25T10:47:19.508Z,27.10
2018-05-25T10:49:47.189Z,27.80
2018-05-25T10:52:14.878Z,27.60
2018-05-25T10:54:42.570Z,28.20
2018-05-25T10:57:10.260Z,28.70
2018-05-25T10:59:37.909Z,27.70
2018-05-25T11:02:05.597Z,28.00
2018-05-25T11:04:33.236Z,27.60
2018-05-25T11:07:01.676Z,26.90
2018-05-25T11:09:29.305Z,26.80
2018-05-25T11:11:57.745Z,27.00
2018-05-25T11:14:25.375Z,27.00
2018-05-25T11:16:53.085Z,27.30
2018-05-25T11:19:20.726Z,27.60
2018-05-25T11:21:49.165Z,28.40
2018-05-25T11:24:16.823Z,28.40
2018-05-25T11:26:44.527Z,28.30
2018-05-25T11:29:12.180Z,27.80
2018-05-25T11:31:39.862Z,25.80
2018-05-25T11:34:07.513Z,25.80
2018-05-25T11:36:35.209Z,26.40
2018-05-25T11:39:02.875Z,27.40
2018-05-25T11:41:30.540Z,28.10
2018-05-25T11:43:58.232Z,28.30
2018-05-25T11:46:25.868Z,26.10
2018-05-25T11:48:53.536Z,26.40
2018-05-25T11:51:21.206Z,26.00
2018-05-25T11:53:48.893Z,25.80
2018-05-25T11:56:16.576Z,26.90
2018-05-25T11:58:44.259Z,26.70
2018-05-25T12:01:11.889Z,27.40
2018-05-25T12:03:40.333Z,27.70
2018-05-25T12:06:07.956Z,27.70
2018-05-25T12:08:36.396Z,28.20
2018-05-25T12:11:04.042Z,28.20
2018-05-25T12:13:31.735Z,27.60
2018-05-25T12:15:59.398Z,26.80
2018-05-25T12:18:27.165Z,27.50
2018-05-25T12:20:54.812Z,27.30
2018-05-25T12:23:23.247Z,28.50
2018-05-25T12:25:50.907Z,28.50
2018-05-25T12:28:18.625Z,27.50
2018-05-25T12:30:46.304Z,27.60
2018-05-25T12:33:13.952Z,26.90
2018-05-25T12:35:41.636Z,26.70
2018-05-25T12:38:09.277Z,25.90
2018-05-25T12:40:36.944Z,26.40
2018-05-25T12:43:04.624Z,26.90
2018-05-25T12:45:32.308Z,27.80
2018-05-25T12:48:00.029Z,27.10
2018-05-25T12:50:27.794Z,27.10
2018-05-25T12:52:55.522Z,26.90
2018-05-25T12:55:23.192Z,27.50
2018-05-25T12:57:50.827Z,27.90
2018-05-25T13:00:18.537Z,27.70
2018-05-25T13:02:46.243Z,28.40
2018-05-25T13:05:13.920Z,29.20
2018-05-25T13:07:41.584Z,29.80
2018-05-25T13:10:09.254Z,29.50
2018-05-25T13:12:36.906Z,28.20
2018-05-25T13:15:04.581Z,27.60
2018-05-25T13:17:32.278Z,27.90
2018-05-25T13:19:59.981Z,28.40
2018-05-25T13:22:27.640Z,28.50
2018-05-25T13:24:55.321Z,28.20
2018-05-25T13:27:22.950Z,28.40
2018-05-25T13:29:50.654Z,27.50
2018-05-25T13:32:18.353Z,27.80
2018-05-25T13:34:45.990Z,28.50
2018-05-25T13:37:13.665Z,28.70
2018-05-25T13:39:41.301Z,27.90
2018-05-25T13:42:09.191Z,27.60
2018-05-25T13:44:36.831Z,28.40
2018-05-25T13:47:05.325Z,28.60
2018-05-25T13:49:33.017Z,28.60
2018-05-25T13:52:00.717Z,28.90
2018-05-25T13:54:28.403Z,27.50
2018-05-25T13:56:56.077Z,28.00
2018-05-25T13:59:23.712Z,27.40
2018-05-25T14:01:52.153Z,28.30
2018-05-25T14:04:19.800Z,28.20
2018-05-25T14:06:47.484Z,28.40
2018-05-25T14:09:15.168Z,29.10
2018-05-25T14:11:42.879Z,28.60
2018-05-25T14:14:10.522Z,28.80
2018-05-25T14:16:38.161Z,28.40
2018-05-25T14:19:05.832Z,28.20
2018-05-25T14:21:33.470Z,28.90
2018-05-25T14:24:01.215Z,27.80
2018-05-25T14:26:28.877Z,28.70
2018-05-25T14:28:56.619Z,28.10
2018-05-25T14:31:25.026Z,28.70
2018-05-25T14:33:52.700Z,28.70
2018-05-25T14:36:20.328Z,28.80
2018-05-25T14:38:48.056Z,29.00
2018-05-25T14:41:15.720Z,28.60
2018-05-25T14:43:43.397Z,28.60
2018-05-25T14:46:11.036Z,27.70
2018-05-25T14:48:38.700Z,27.20
2018-05-25T14:51:06.338Z,28.00
2018-05-25T14:53:34.032Z,28.30
2018-05-25T14:56:01.719Z,27.60
2018-05-25T14:58:29.428Z,27.20
2018-05-25T15:00:57.125Z,27.10
2018-05-25T15:03:24.781Z,27.20
2018-05-25T15:05:52.414Z,27.10
2018-05-25T15:08:20.061Z,27.20
2018-05-25T15:10:47.751Z,27.80
2018-05-25T15:13:15.432Z,27.50
2018-05-25T15:15:43.150Z,28.50
2018-05-25T15:18:11.523Z,27.90
2018-05-25T15:20:39.973Z,26.40
2018-05-25T15:23:07.599Z,26.30
2018-05-25T15:25:35.283Z,26.70
2018-05-25T15:28:02.952Z,27.90
2018-05-25T15:30:30.713Z,28.20
2018-05-25T15:32:59.128Z,28.50
2018-05-25T15:35:26.869Z,28.40
2018-05-25T15:37:54.501Z,27.00
2018-05-25T15:40:22.171Z,27.40
2018-05-25T15:42:49.827Z,27.00
2018-05-25T15:45:17.545Z,27.30
2018-05-25T15:47:45.200Z,27.20
2018-05-25T15:50:12.881Z,27.70
2018-05-25T15:52:40.515Z,28.20
2018-05-25T15:55:08.192Z,28.10
2018-05-25T15:57:35.841Z,28.00
2018-05-25T16:00:04.328Z,27.90
2018-05-25T16:02:32.797Z,28.00
2018-05-25T16:05:00.479Z,28.00
2018-05-25T16:07:28.965Z,28.60
2018-05-25T16:09:56.661Z,28.60
2018-05-25T16:12:24.332Z,28.00
2018-05-25T16:14:52.744Z,28.50
2018-05-25T16:17:21.181Z,28.70
2018-05-25T16:19:48.884Z,28.70
2018-05-25T16:22:16.569Z,28.30
2018-05-25T16:24:44.989Z,29.40
2018-05-25T16:27:12.669Z,29.40
2018-05-25T16:29:40.303Z,29.40
2018-05-25T16:32:08.749Z,28.50
2018-05-25T16:34:36.376Z,28.50
2018-05-25T16:37:04.867Z,27.80
2018-05-25T16:39:33.284Z,27.50
2018-05-25T16:42:00.953Z,27.50
2018-05-25T16:44:28.597Z,28.20
2018-05-25T16:46:56.265Z,28.10
2018-05-25T16:49:23.900Z,28.00
2018-05-25T16:51:51.565Z,27.80
2018-05-25T16:54:19.256Z,27.90
2018-05-25T16:56:46.978Z,27.70
2018-05-25T16:59:15.423Z,27.30
2018-05-25T17:01:43.108Z,27.30
2018-05-25T17:04:10.741Z,27.80
2018-05-25T17:06:38.433Z,27.60
2018-05-25T17:09:06.070Z,27.30
2018-05-25T17:11:33.761Z,27.60
2018-05-25T17:14:01.429Z,27.40
2018-05-25T17:16:29.896Z,27.10
2018-05-25T17:18:57.661Z,27.00
2018-05-25T17:21:25.315Z,27.20
2018-05-25T17:23:52.981Z,27.10
2018-05-25T17:26:20.620Z,27.40
2018-05-25T17:28:48.306Z,26.90
2018-05-25T17:31:15.948Z,26.90
2018-05-25T17:33:44.397Z,27.30
2018-05-25T17:36:12.070Z,27.30
2018-05-25T17:38:39.732Z,27.50
2018-05-25T17:41:07.401Z,27.80
2018-05-25T17:43:35.072Z,28.10
2018-05-25T17:46:02.756Z,27.80
2018-05-25T17:48:30.505Z,27.80
2018-05-25T17:50:58.234Z,27.30
2018-05-25T17:53:25.963Z,26.40
2018-05-25T17:55:53.608Z,27.20
2018-05-25T17:58:21.263Z,27.40
2018-05-25T18:00:48.928Z,26.60
2018-05-25T18:03:16.566Z,26.80
2018-05-25T18:05:44.241Z,26.70
2018-05-25T18:08:11.879Z,26.50
2018-05-25T18:10:40.325Z,26.70
2018-05-25T18:13:07.960Z,26.70
2018-05-25T18:15:35.640Z,26.10
2018-05-25T18:18:03.329Z,26.80
2018-05-25T18:20:31.065Z,27.20
2018-05-25T18:22:59.524Z,26.20
2018-05-25T18:25:27.237Z,26.20
2018-05-25T18:27:54.993Z,26.70
2018-05-25T18:30:23.439Z,26.40
2018-05-25T18:32:51.088Z,26.40
2018-05-25T18:35:18.764Z,25.90
2018-05-25T18:37:46.401Z,26.50
2018-05-25T18:40:14.076Z,26.80
2018-05-25T18:42:41.722Z,26.70
2018-05-25T18:45:09.405Z,26.30
2018-05-25T18:47:37.056Z,26.30
2018-05-25T18:50:04.781Z,26.50
2018-05-25T18:52:33.195Z,26.80
2018-05-25T18:55:00.881Z,26.80
2018-05-25T18:57:28.592Z,26.70
2018-05-25T18:59:56.344Z,26.00
2018-05-25T19:02:24.024Z,25.30
2018-05-25T19:04:51.693Z,25.10
2018-05-25T19:07:19.381Z,25.30
2018-05-25T19:09:47.026Z,25.90
2018-05-25T19:12:14.688Z,26.20
2018-05-25T19:14:42.332Z,25.70
2018-05-25T19:17:09.999Z,25.90
2018-05-25T19:19:37.644Z,26.20
2018-05-25T19:22:05.320Z,26.40
2018-05-25T19:24:33.848Z,26.30
2018-05-25T19:27:01.529Z,25.90
2018-05-25T19:29:29.952Z,25.20
2018-05-25T19:31:57.657Z,25.20
2018-05-25T19:34:25.486Z,24.20
2018-05-25T19:36:53.965Z,24.00
2018-05-25T19:39:22.380Z,24.30
2018-05-25T19:41:50.045Z,24.40
2018-05-25T19:44:18.440Z,24.00
2018-05-25T19:46:46.875Z,24.20
2018-05-25T19:49:14.504Z,24.20
2018-05-25T19:51:44.843Z,25.10
2018-05-25T19:54:13.236Z,25.50
2018-05-25T19:56:40.921Z,25.50
2018-05-25T19:59:08.557Z,25.40
2018-05-25T20:01:36.193Z,24.70
2018-05-25T20:04:03.954Z,24.30
2018-05-25T20:06:31.600Z,24.10
2018-05-25T20:09:00.049Z,23.90
2018-05-25T20:11:27.712Z,23.90
2018-05-25T20:13:55.388Z,24.30
2018-05-25T20:16:23.025Z,24.20
2018-05-25T20:18:50.688Z,24.10
2018-05-25T20:21:19.097Z,24.50
2018-05-25T20:23:46.765Z,24.40
2018-05-25T20:26:14.401Z,24.30
2018-05-25T20:28:42.069Z,24.50
2018-05-25T20:31:09.696Z,24.50
2018-05-25T20:33:37.380Z,24.70
2018-05-25T20:36:05.021Z,24.40
2018-05-25T20:38:33.516Z,25.10
2018-05-25T20:41:01.197Z,25.10
2018-05-25T20:43:28.928Z,25.00
2018-05-25T20:45:56.587Z,24.90
2018-05-25T20:48:24.282Z,25.00
2018-05-25T20:50:51.924Z,25.00
2018-05-25T20:53:19.655Z,25.00
2018-05-25T20:55:48.060Z,25.20
2018-05-25T20:58:15.691Z,25.10
2018-05-25T21:00:43.360Z,24.90
2018-05-25T21:03:11.000Z,24.40
2018-05-25T21:05:38.678Z,24.80
2018-05-25T21:08:06.321Z,24.50
2018-05-25T21:10:33.992Z,24.60
2018-05-25T21:13:02.445Z,24.70
2018-05-25T21:15:30.135Z,24.70
2018-05-25T21:17:57.785Z,24.90
2018-05-25T21:20:25.489Z,24.90
2018-05-25T21:22:53.928Z,24.90
2018-05-25T21:25:21.617Z,24.90
2018-05-25T21:27:49.253Z,24.80
2018-05-25T21:30:16.920Z,24.70
2018-05-25T21:32:45.321Z,24.90
2018-05-25T21:35:12.984Z,24.90
2018-05-25T21:37:41.384Z,24.40
2018-05-25T21:40:09.052Z,24.30
2018-05-25T21:42:36.714Z,24.40
2018-05-25T21:45:04.437Z,24.60
2018-05-25T21:47:32.100Z,24.70
2018-05-25T21:50:00.157Z,24.70
2018-05-25T21:52:27.850Z,24.70
2018-05-25T21:54:55.550Z,24.70
2018-05-25T21:57:23.204Z,24.70
2018-05-25T21:59:50.832Z,24.40
2018-05-25T22:02:19.276Z,24.30
2018-05-25T22:04:46.916Z,24.30
2018-05-25T22:07:14.584Z,24.30
2018-05-25T22:09:42.984Z,24.30
2018-05-25T22:12:10.701Z,24.30
2018-05-25T22:14:38.328Z,24.30
2018-05-25T22:17:06.777Z,24.30
2018-05-25T22:19:34.413Z,24.30
2018-05-25T22:22:02.089Z,24.30
2018-05-25T22:24:29.732Z,24.30
2018-05-25T22:26:58.191Z,24.30
2018-05-25T22:29:25.885Z,24.30
2018-05-25T22:31:54.360Z,24.30
2018-05-25T22:34:21.997Z,24.30
2018-05-25T22:36:49.670Z,24.30
2018-05-25T22:39:17.305Z,24.10
2018-05-25T22:41:50.608Z,24.20
2018-05-25T22:44:30.860Z,24.10
2018-05-25T22:47:10.421Z,24.10
2018-05-25T22:49:49.913Z,24.10
2018-05-25T22:52:22.729Z,24.10
2018-05-25T22:54:52.296Z,24.10
2018-05-25T22:57:20.735Z,24.00
2018-05-25T22:59:48.368Z,24.00
2018-05-25T23:02:16.804Z,23.90
2018-05-25T23:04:44.433Z,23.80
2018-05-25T23:07:12.874Z,23.70
2018-05-25T23:09:40.520Z,23.70
2018-05-25T23:12:08.273Z,23.80
2018-05-25T23:14:36.676Z,23.80
2018-05-25T23:17:04.352Z,23.80
2018-05-25T23:19:32.001Z,23.70
2018-05-25T23:22:00.436Z,23.70
2018-05-25T23:24:28.067Z,23.70
2018-05-25T23:26:56.466Z,23.50
2018-05-25T23:29:24.908Z,23.70
2018-05-25T23:31:52.584Z,23.60
2018-05-25T23:34:20.253Z,23.60
2018-05-25T23:36:47.936Z,23.40
2018-05-25T23:39:15.610Z,23.50
2018-05-25T23:41:43.249Z,23.50
2018-05-25T23:44:10.928Z,23.50
2018-05-25T23:46:38.563Z,23.50
2018-05-25T23:49:06.254Z,23.60
2018-05-25T23:51:34.673Z,23.50
2018-05-25T23:54:02.351Z,23.50
2018-05-25T23:56:29.981Z,23.50
2018-05-25T23:58:57.649Z,23.50
